createdAt,value
2023-04-11T02:56:24.006Z,0.00
2023-04-11T02:58:23.982Z,0.00
2023-04-11T02:59:23.969Z,0.00
2023-04-11T03:00:23.968Z,0.00
2023-04-11T03:02:24.161Z,0.00
2023-04-11T03:03:24.024Z,0.00
2023-04-11T03:04:23.979Z,0.00
2023-04-11T03:05:23.915Z,0.00
2023-04-11T03:06:23.951Z,0.00
2023-04-11T03:07:23.919Z,0.00
2023-04-11T03:08:23.894Z,0.00
2023-04-11T03:09:23.874Z,0.00
2023-04-11T03:12:23.845Z,0.00
2023-04-11T03:15:23.842Z,0.00
2023-04-11T03:16:23.842Z,0.00
2023-04-11T03:17:23.861Z,0.00
2023-04-11T03:20:23.762Z,0.00
2023-04-11T03:21:23.755Z,0.00
2023-04-11T03:22:23.739Z,0.00
2023-04-11T03:23:23.753Z,0.00
2023-04-11T03:24:23.718Z,0.00
2023-04-11T03:25:23.716Z,0.00
2023-04-11T03:26:23.702Z,0.00
2023-04-11T03:27:23.689Z,0.00
2023-04-11T03:28:23.678Z,0.00
2023-04-11T03:29:23.669Z,0.00
2023-04-11T03:30:23.658Z,0.00
2023-04-11T03:31:23.683Z,0.00
2023-04-11T03:32:23.686Z,0.00
2023-04-11T03:33:23.629Z,0.00
2023-04-11T03:34:23.619Z,0.00
2023-04-11T03:35:23.611Z,0.00
2023-04-11T03:36:23.606Z,0.00
2023-04-11T03:37:23.588Z,0.00
2023-04-11T03:38:23.592Z,0.00
2023-04-11T03:39:23.603Z,0.00
2023-04-11T03:40:23.556Z,0.00
2023-04-11T03:41:23.561Z,0.00
2023-04-11T03:42:23.545Z,0.00
2023-04-11T03:43:23.531Z,0.00
2023-04-11T03:44:23.517Z,0.00
2023-04-11T03:45:23.509Z,0.00
2023-04-11T03:46:23.541Z,0.00
2023-04-11T03:47:23.522Z,0.00
2023-04-11T03:48:23.479Z,0.00
2023-04-11T03:49:23.470Z,0.00
2023-04-11T03:50:23.475Z,0.00
2023-04-11T03:51:23.447Z,0.00
2023-04-11T03:52:23.445Z,0.00
2023-04-11T03:53:23.424Z,0.00
2023-04-11T03:54:23.413Z,0.00
2023-04-11T03:55:23.429Z,0.00
2023-04-11T03:56:23.400Z,0.00
2023-04-11T03:57:23.394Z,0.00
2023-04-11T03:58:23.391Z,0.00
2023-04-11T03:59:23.361Z,0.00
2023-04-11T04:00:23.367Z,0.00
2023-04-11T04:01:23.344Z,0.00
2023-04-11T04:02:23.474Z,0.00
2023-04-11T04:03:23.514Z,0.00
2023-04-11T04:05:23.304Z,0.00
2023-04-11T04:06:23.293Z,0.00
2023-04-11T04:07:23.278Z,0.00
2023-04-11T04:08:23.269Z,0.00
2023-04-11T04:09:23.260Z,0.00
2023-04-11T04:10:23.257Z,0.00
2023-04-11T04:11:23.380Z,0.00
2023-04-11T04:12:23.228Z,1.00
2023-04-11T04:13:23.229Z,1.00
2023-04-11T04:14:23.204Z,1.00
2023-04-11T04:15:23.198Z,1.00
2023-04-11T04:16:23.264Z,1.00
2023-04-11T04:17:23.240Z,0.00
2023-04-11T04:18:23.163Z,0.00
2023-04-11T04:19:23.170Z,0.00
2023-04-11T04:20:23.143Z,2.00
2023-04-11T04:21:23.134Z,2.00
2023-04-11T04:22:23.121Z,2.00
2023-04-11T04:23:23.110Z,4.00
2023-04-11T04:24:23.101Z,0.00
2023-04-11T04:25:25.568Z,4.00
2023-04-11T04:26:23.080Z,2.00
2023-04-11T04:27:23.091Z,6.00
2023-04-11T04:28:23.065Z,9.00
2023-04-11T04:29:23.050Z,15.00
2023-04-11T04:30:23.040Z,13.00
2023-04-11T04:31:23.057Z,20.00
2023-04-11T04:32:23.397Z,20.00
2023-04-11T04:33:23.015Z,27.00
2023-04-11T04:34:22.998Z,28.00
2023-04-11T04:35:22.988Z,37.00
2023-04-11T04:36:22.977Z,44.00
2023-04-11T04:37:23.046Z,53.00
2023-04-11T04:38:22.959Z,58.00
2023-04-11T04:39:22.949Z,69.00
2023-04-11T04:40:22.934Z,82.00
2023-04-11T04:41:22.958Z,94.00
2023-04-11T04:42:22.918Z,112.00
2023-04-11T04:43:22.931Z,129.00
2023-04-11T04:44:22.897Z,141.00
2023-04-11T04:45:22.891Z,165.00
2023-04-11T04:46:23.046Z,186.00
2023-04-11T04:47:22.868Z,204.00
2023-04-11T04:48:22.855Z,222.00
2023-04-11T04:49:22.839Z,243.00
2023-04-11T04:50:22.840Z,261.00
2023-04-11T04:51:22.822Z,282.00
2023-04-11T04:52:22.810Z,310.00
2023-04-11T04:53:22.821Z,336.00
2023-04-11T04:54:22.800Z,365.00
2023-04-11T04:55:22.785Z,390.00
2023-04-11T04:56:22.774Z,412.00
2023-04-11T04:57:22.770Z,446.00
2023-04-11T04:58:22.763Z,478.00
2023-04-11T04:59:22.762Z,507.00
2023-04-11T05:00:23.323Z,535.00
2023-04-11T05:01:22.858Z,572.00
2023-04-11T05:02:22.966Z,610.00
2023-04-11T05:03:22.899Z,632.00
2023-04-11T05:04:22.774Z,663.00
2023-04-11T05:05:22.676Z,704.00
2023-04-11T05:06:22.669Z,745.00
2023-04-11T05:07:22.652Z,780.00
2023-04-11T05:08:22.656Z,819.00
2023-04-11T05:09:22.632Z,858.00
2023-04-11T05:10:22.638Z,897.00
2023-04-11T05:11:22.614Z,936.00
2023-04-11T05:12:22.602Z,982.00
2023-04-11T05:13:22.602Z,1033.00
2023-04-11T05:14:22.590Z,1069.00
2023-04-11T05:15:22.600Z,1127.00
2023-04-11T05:16:22.584Z,1176.00
2023-04-11T05:17:25.094Z,1231.00
2023-04-11T05:18:22.544Z,1273.00
2023-04-11T05:19:22.531Z,1329.00
2023-04-11T05:20:22.628Z,1376.00
2023-04-11T05:21:22.518Z,1426.00
2023-04-11T05:22:22.501Z,1482.00
2023-04-11T05:23:22.495Z,1543.00
2023-04-11T05:24:22.480Z,1615.00
2023-04-11T05:25:22.475Z,1669.00
2023-04-11T05:26:22.458Z,1720.00
2023-04-11T05:27:22.448Z,1792.00
2023-04-11T05:28:22.440Z,1867.00
2023-04-11T05:29:22.427Z,1939.00
2023-04-11T05:30:22.421Z,2007.00
2023-04-11T05:31:22.607Z,2072.00
2023-04-11T05:32:22.483Z,2138.00
2023-04-11T05:33:22.386Z,2194.00
2023-04-11T05:34:22.373Z,2267.00
2023-04-11T05:35:22.365Z,2352.00
2023-04-11T05:36:22.357Z,2425.00
2023-04-11T05:37:22.344Z,2496.00
2023-04-11T05:38:22.347Z,2566.00
2023-04-11T05:39:22.325Z,2624.00
2023-04-11T05:40:22.321Z,2708.00
2023-04-11T05:41:22.316Z,2782.00
2023-04-11T05:42:22.313Z,2881.00
2023-04-11T05:43:22.296Z,2965.00
2023-04-11T05:44:22.278Z,3025.00
2023-04-11T05:45:22.268Z,3082.00
2023-04-11T05:46:22.316Z,3113.00
2023-04-11T05:47:22.336Z,3166.00
2023-04-11T05:48:22.237Z,3216.00
2023-04-11T05:49:22.226Z,3311.00
2023-04-11T05:50:22.218Z,3380.00
2023-04-11T05:51:22.206Z,3417.00
2023-04-11T05:52:22.196Z,3458.00
2023-04-11T05:53:22.188Z,3508.00
2023-04-11T05:54:22.173Z,3577.00
2023-04-11T05:55:22.168Z,3638.00
2023-04-11T05:56:22.156Z,3703.00
2023-04-11T05:57:22.146Z,3713.00
2023-04-11T05:58:22.132Z,3731.00
2023-04-11T05:59:26.365Z,3757.00
2023-04-11T06:00:22.113Z,3780.00
2023-04-11T06:01:22.122Z,3821.00
2023-04-11T06:02:22.184Z,3880.00
2023-04-11T06:03:22.345Z,3915.00
2023-04-11T06:04:22.353Z,3945.00
2023-04-11T06:05:22.061Z,3974.00
2023-04-11T06:06:22.049Z,4057.00
2023-04-11T06:07:22.043Z,4180.00
2023-04-11T06:08:22.027Z,4340.00
2023-04-11T06:09:22.018Z,4484.00
2023-04-11T06:10:22.007Z,4624.00
2023-04-11T06:11:22.000Z,4808.00
2023-04-11T06:12:21.989Z,4945.00
2023-04-11T06:13:21.977Z,5077.00
2023-04-11T06:14:21.968Z,5158.00
2023-04-11T06:15:21.959Z,5239.00
2023-04-11T06:16:21.984Z,5294.00
2023-04-11T06:17:21.958Z,5408.00
2023-04-11T06:18:21.926Z,5576.00
2023-04-11T06:19:21.943Z,5738.00
2023-04-11T06:20:21.905Z,5923.00
2023-04-11T06:22:21.986Z,6286.00
2023-04-11T06:23:21.906Z,6519.00
2023-04-11T06:24:21.881Z,6732.00
2023-04-11T06:25:21.853Z,6949.00
2023-04-11T06:26:21.852Z,7135.00
2023-04-11T06:27:21.836Z,7302.00
2023-04-11T06:28:21.828Z,7431.00
2023-04-11T06:29:21.818Z,7543.00
2023-04-11T06:30:21.807Z,7643.00
2023-04-11T06:31:21.846Z,7675.00
2023-04-11T06:32:21.823Z,7685.00
2023-04-11T06:33:21.787Z,7638.00
2023-04-11T06:34:21.766Z,7560.00
2023-04-11T06:35:21.780Z,7408.00
2023-04-11T06:36:21.744Z,7291.00
2023-04-11T06:37:21.733Z,7195.00
2023-04-11T06:38:21.726Z,7215.00
2023-04-11T06:39:21.714Z,7237.00
2023-04-11T06:40:21.716Z,7225.00
2023-04-11T06:41:21.694Z,7284.00
2023-04-11T06:42:21.682Z,7253.00
2023-04-11T06:43:21.671Z,7255.00
2023-04-11T06:44:21.736Z,7083.00
2023-04-11T06:45:21.651Z,7015.00
2023-04-11T06:46:21.673Z,6884.00
2023-04-11T06:47:21.693Z,6627.00
2023-04-11T06:48:21.625Z,6393.00
2023-04-11T06:49:21.610Z,6234.00
2023-04-11T06:50:21.607Z,6134.00
2023-04-11T06:51:21.614Z,6037.00
2023-04-11T06:52:21.580Z,5976.00
2023-04-11T06:53:21.571Z,5929.00
2023-04-11T06:54:21.559Z,5962.00
2023-04-11T06:55:21.566Z,6155.00
2023-04-11T06:56:21.547Z,6200.00
2023-04-11T06:57:21.530Z,6400.00
2023-04-11T06:58:21.519Z,6754.00
2023-04-11T06:59:21.526Z,7101.00
2023-04-11T07:00:21.501Z,7467.00
2023-04-11T07:01:21.495Z,7630.00
2023-04-11T07:02:21.564Z,7744.00
2023-04-11T07:03:21.606Z,7895.00
2023-04-11T07:04:21.649Z,8077.00
2023-04-11T07:05:21.450Z,8253.00
2023-04-11T07:06:21.440Z,8425.00
2023-04-11T07:07:21.458Z,8554.00
2023-04-11T07:08:21.421Z,8637.00
2023-04-11T07:09:21.406Z,8720.00
2023-04-11T07:10:21.404Z,9079.00
2023-04-11T07:11:21.386Z,9667.00
2023-04-11T07:12:21.382Z,10034.00
2023-04-11T07:14:21.357Z,10558.00
2023-04-11T07:15:21.348Z,10758.00
2023-04-11T07:16:21.414Z,11072.00
2023-04-11T07:17:21.331Z,11288.00
2023-04-11T07:18:21.314Z,11601.00
2023-04-11T07:19:21.306Z,11737.00
2023-04-11T07:20:21.305Z,11949.00
2023-04-11T07:21:21.290Z,12116.00
2023-04-11T07:22:21.272Z,12288.00
2023-04-11T07:23:23.604Z,12413.00
2023-04-11T07:24:21.249Z,12428.00
2023-04-11T07:25:21.349Z,12511.00
2023-04-11T07:26:21.241Z,13093.00
2023-04-11T07:27:21.226Z,13604.00
2023-04-11T07:28:21.222Z,13413.00
2023-04-11T07:29:21.204Z,13698.00
2023-04-11T07:30:21.203Z,12623.00
2023-04-11T07:31:21.230Z,13650.00
2023-04-11T07:32:21.203Z,13274.00
2023-04-11T07:33:21.163Z,13041.00
2023-04-11T07:34:21.153Z,12785.00
2023-04-11T07:35:21.145Z,12412.00
2023-04-11T07:36:21.129Z,12089.00
2023-04-11T07:37:21.119Z,12195.00
2023-04-11T07:38:21.111Z,11587.00
2023-04-11T07:39:21.123Z,11132.00
2023-04-11T07:40:21.108Z,10842.00
2023-04-11T07:41:21.094Z,10810.00
2023-04-11T07:42:21.073Z,10738.00
2023-04-11T07:43:21.057Z,10812.00
2023-04-11T07:44:21.048Z,10811.00
2023-04-11T07:45:21.067Z,11160.00
2023-04-11T07:46:21.032Z,11341.00
2023-04-11T07:47:21.021Z,11768.00
2023-04-11T07:48:21.005Z,11221.00
2023-04-11T07:49:20.994Z,10845.00
2023-04-11T07:50:20.992Z,11217.00
2023-04-11T07:51:20.973Z,11058.00
2023-04-11T07:52:20.962Z,11217.00
2023-04-11T07:53:20.955Z,10726.00
2023-04-11T07:54:20.948Z,10010.00
2023-04-11T07:55:20.978Z,10090.00
2023-04-11T07:56:20.921Z,10220.00
2023-04-11T07:57:20.917Z,10636.00
2023-04-11T07:58:20.916Z,11648.00
2023-04-11T07:59:20.891Z,10397.00
2023-04-11T08:00:20.889Z,14091.00
2023-04-11T08:01:20.872Z,12845.00
2023-04-11T08:02:20.913Z,10925.00
2023-04-11T08:03:21.128Z,10544.00
2023-04-11T08:04:21.117Z,10792.00
2023-04-11T08:05:20.850Z,12341.00
2023-04-11T08:06:20.838Z,12248.00
2023-04-11T08:07:20.820Z,11677.00
2023-04-11T08:08:20.807Z,11882.00
2023-04-11T08:09:20.794Z,11969.00
2023-04-11T08:10:20.777Z,12659.00
2023-04-11T08:11:20.820Z,14021.00
2023-04-11T08:12:20.760Z,13883.00
2023-04-11T08:13:20.794Z,13731.00
2023-04-11T08:14:20.742Z,13800.00
2023-04-11T08:15:20.733Z,13899.00
2023-04-11T08:16:20.787Z,13690.00
2023-04-11T08:17:27.714Z,13666.00
2023-04-11T08:18:21.801Z,13774.00
2023-04-11T08:19:20.693Z,13710.00
2023-04-11T08:20:20.684Z,13748.00
2023-04-11T08:21:20.673Z,13637.00
2023-04-11T08:22:20.660Z,13569.00
2023-04-11T08:23:20.659Z,13274.00
2023-04-11T08:24:20.639Z,12494.00
2023-04-11T08:26:20.622Z,13471.00
2023-04-11T08:27:20.675Z,13850.00
2023-04-11T08:28:20.650Z,13801.00
2023-04-11T08:29:20.594Z,12855.00
2023-04-11T08:30:20.667Z,13174.00
2023-04-11T08:31:20.830Z,12299.00
2023-04-11T08:32:20.568Z,12170.00
2023-04-11T08:33:20.564Z,12500.00
2023-04-11T08:34:20.543Z,11860.00
2023-04-11T08:35:20.546Z,11070.00
2023-04-11T08:36:20.530Z,13118.00
2023-04-11T08:37:20.512Z,13718.00
2023-04-11T08:38:20.503Z,13828.00
2023-04-11T08:39:20.490Z,13644.00
2023-04-11T08:40:20.490Z,14468.00
2023-04-11T08:41:20.540Z,14566.00
2023-04-11T08:42:20.471Z,14606.00
2023-04-11T08:43:20.522Z,14726.00
2023-04-11T08:44:20.436Z,14861.00
2023-04-11T08:45:20.433Z,14863.00
2023-04-11T08:46:20.459Z,14652.00
2023-04-11T08:47:20.447Z,14582.00
2023-04-11T08:48:20.400Z,14593.00
2023-04-11T08:49:20.385Z,14777.00
2023-04-11T08:50:20.377Z,14526.00
2023-04-11T08:51:20.365Z,13734.00
2023-04-11T08:52:20.366Z,13674.00
2023-04-11T08:53:20.345Z,14164.00
2023-04-11T08:54:20.343Z,14494.00
2023-04-11T08:55:20.382Z,14646.00
2023-04-11T08:57:20.318Z,14337.00
2023-04-11T08:58:20.294Z,14438.00
2023-04-11T08:59:20.320Z,14746.00
2023-04-11T09:00:20.283Z,14708.00
2023-04-11T09:01:20.305Z,14717.00
2023-04-11T09:02:20.473Z,14913.00
2023-04-11T09:03:20.325Z,14762.00
2023-04-11T09:05:20.228Z,15235.00
2023-04-11T09:06:20.212Z,15542.00
2023-04-11T09:07:20.204Z,15620.00
2023-04-11T09:08:20.195Z,15806.00
2023-04-11T09:09:20.183Z,15828.00
2023-04-11T09:10:20.201Z,15720.00
2023-04-11T09:11:20.170Z,15804.00
2023-04-11T09:12:20.157Z,16403.00
2023-04-11T09:13:20.165Z,16696.00
2023-04-11T09:14:20.146Z,16920.00
2023-04-11T09:15:20.206Z,16920.00
2023-04-11T09:16:20.227Z,17370.00
2023-04-11T09:17:20.110Z,17412.00
2023-04-11T09:18:20.090Z,17844.00
2023-04-11T09:19:20.085Z,18167.00
2023-04-11T09:20:20.072Z,18630.00
2023-04-11T09:21:20.069Z,18670.00
2023-04-11T09:22:20.051Z,19179.00
2023-04-11T09:23:20.045Z,18765.00
2023-04-11T09:24:20.037Z,18749.00
2023-04-11T09:25:20.056Z,18789.00
2023-04-11T09:26:20.016Z,19087.00
2023-04-11T09:27:20.007Z,19388.00
2023-04-11T09:28:19.998Z,20488.00
2023-04-11T09:29:19.988Z,21395.00
2023-04-11T09:30:19.989Z,19998.00
2023-04-11T09:31:20.020Z,20566.00
2023-04-11T09:32:20.009Z,20141.00
2023-04-11T09:33:19.958Z,19761.00
2023-04-11T09:34:19.956Z,20125.00
2023-04-11T09:35:19.932Z,21087.00
2023-04-11T09:36:19.943Z,20369.00
2023-04-11T09:37:19.914Z,20189.00
2023-04-11T09:38:19.898Z,20316.00
2023-04-11T09:39:19.898Z,20486.00
2023-04-11T09:40:19.884Z,20497.00
2023-04-11T09:41:19.870Z,20416.00
2023-04-11T09:42:19.862Z,20767.00
2023-04-11T09:43:20.445Z,21046.00
2023-04-11T09:44:19.840Z,21246.00
2023-04-11T09:45:19.832Z,20777.00
2023-04-11T09:46:19.860Z,21881.00
2023-04-11T09:47:19.838Z,21330.00
2023-04-11T09:48:19.803Z,21804.00
2023-04-11T09:49:19.793Z,22175.00
2023-04-11T09:50:19.783Z,22425.00
2023-04-11T09:51:31.936Z,21563.00
2023-04-11T09:52:20.785Z,21975.00
2023-04-11T09:53:19.759Z,22050.00
2023-04-11T09:54:19.745Z,22071.00
2023-04-11T09:55:19.745Z,22036.00
2023-04-11T09:56:19.724Z,21977.00
2023-04-11T09:57:19.714Z,22034.00
2023-04-11T09:58:19.703Z,22821.00
2023-04-11T09:59:19.693Z,22666.00
2023-04-11T10:00:19.680Z,23132.00
2023-04-11T10:01:19.743Z,23031.00
2023-04-11T10:02:19.742Z,23723.00
2023-04-11T10:03:19.923Z,22312.00
2023-04-11T10:04:19.671Z,22050.00
2023-04-11T10:05:19.633Z,22489.00
2023-04-11T10:06:19.620Z,23852.00
2023-04-11T10:07:19.611Z,24147.00
2023-04-11T10:08:19.614Z,24551.00
2023-04-11T10:09:19.596Z,24212.00
2023-04-11T10:10:19.594Z,23135.00
2023-04-11T10:11:19.573Z,22901.00
2023-04-11T10:12:19.562Z,23500.00
2023-04-11T10:13:19.551Z,23472.00
2023-04-11T10:14:19.543Z,21087.00
2023-04-11T10:15:19.539Z,24674.00
2023-04-11T10:16:19.554Z,25689.00
2023-04-11T10:17:22.626Z,25282.00
2023-04-11T10:18:19.503Z,25203.00
2023-04-11T10:19:19.520Z,26207.00
2023-04-11T10:20:19.485Z,27854.00
2023-04-11T10:21:19.481Z,30164.00
2023-04-11T10:22:19.462Z,31289.00
2023-04-11T10:23:19.463Z,31774.00
2023-04-11T10:24:19.461Z,33041.00
2023-04-11T10:25:19.573Z,32339.00
2023-04-11T10:26:19.425Z,30168.00
2023-04-11T10:27:19.417Z,29765.00
2023-04-11T10:28:19.405Z,31272.00
2023-04-11T10:29:19.395Z,30719.00
2023-04-11T10:30:19.414Z,30624.00
2023-04-11T10:31:19.403Z,29727.00
2023-04-11T10:32:19.385Z,29682.00
2023-04-11T10:33:19.579Z,29585.00
2023-04-11T10:34:19.355Z,28348.00
2023-04-11T10:35:19.366Z,28995.00
2023-04-11T10:36:20.804Z,27821.00
2023-04-11T10:37:19.340Z,28389.00
2023-04-11T10:38:19.314Z,30692.00
2023-04-11T10:39:19.302Z,30970.00
2023-04-11T10:40:19.307Z,31488.00
2023-04-11T10:41:19.299Z,32571.00
2023-04-11T10:42:19.270Z,32649.00
2023-04-11T10:43:19.294Z,32650.00
2023-04-11T10:44:19.276Z,31960.00
2023-04-11T10:45:19.272Z,31723.00
2023-04-11T10:46:19.259Z,31316.00
2023-04-11T10:47:19.286Z,30995.00
2023-04-11T10:48:19.211Z,30147.00
2023-04-11T10:49:19.209Z,31502.00
2023-04-11T10:50:19.242Z,31828.00
2023-04-11T10:51:19.207Z,30040.00
2023-04-11T10:52:19.192Z,32285.00
2023-04-11T10:54:19.157Z,33775.00
2023-04-11T10:55:19.145Z,32437.00
2023-04-11T10:56:19.137Z,33479.00
2023-04-11T10:57:19.137Z,32908.00
2023-04-11T10:58:19.118Z,34509.00
2023-04-11T10:59:19.115Z,34624.00
2023-04-11T11:00:19.159Z,33657.00
2023-04-11T11:01:31.894Z,33360.00
2023-04-11T11:02:20.378Z,35897.00
2023-04-11T11:03:19.227Z,33893.00
2023-04-11T11:04:19.417Z,34840.00
2023-04-11T11:05:19.047Z,34025.00
2023-04-11T11:06:19.038Z,33689.00
2023-04-11T11:07:19.062Z,34403.00
2023-04-11T11:08:19.016Z,35619.00
2023-04-11T11:09:19.035Z,35751.00
2023-04-11T11:10:18.997Z,34688.00
2023-04-11T11:11:18.987Z,37150.00
2023-04-11T11:12:19.008Z,36193.00
2023-04-11T11:13:18.971Z,36326.00
2023-04-11T11:14:18.959Z,36100.00
2023-04-11T11:15:18.950Z,38547.00
2023-04-11T11:16:18.966Z,40592.00
2023-04-11T11:17:18.933Z,40974.00
2023-04-11T11:18:18.925Z,40192.00
2023-04-11T11:19:18.909Z,39631.00
2023-04-11T11:20:18.900Z,39563.00
2023-04-11T11:21:26.743Z,40337.00
2023-04-11T11:22:19.913Z,41570.00
2023-04-11T11:23:18.900Z,42651.00
2023-04-11T11:24:18.859Z,43965.00
2023-04-11T11:25:18.860Z,42850.00
2023-04-11T11:26:18.844Z,39723.00
2023-04-11T11:27:18.833Z,32896.00
2023-04-11T11:28:18.823Z,35836.00
2023-04-11T11:29:18.811Z,38023.00
2023-04-11T11:30:18.805Z,37784.00
2023-04-11T11:31:18.831Z,40609.00
2023-04-11T11:32:18.778Z,40994.00
2023-04-11T11:33:18.776Z,41407.00
2023-04-11T11:34:23.662Z,41623.00
2023-04-11T11:35:18.751Z,41695.00
2023-04-11T11:36:18.779Z,39859.00
2023-04-11T11:37:18.741Z,37221.00
2023-04-11T11:38:18.720Z,38930.00
2023-04-11T11:39:20.443Z,41173.00
2023-04-11T11:40:18.702Z,40253.00
2023-04-11T11:41:18.692Z,38844.00
2023-04-11T11:42:18.692Z,38996.00
2023-04-11T11:43:18.679Z,40293.00
2023-04-11T11:44:18.666Z,41991.00
2023-04-11T11:45:18.652Z,40489.00
2023-04-11T11:46:18.701Z,39683.00
2023-04-11T11:47:18.642Z,40191.00
2023-04-11T11:48:18.631Z,38165.00
2023-04-11T11:49:18.623Z,43931.00
2023-04-11T11:50:18.615Z,44980.00
2023-04-11T11:51:18.610Z,42666.00
2023-04-11T11:52:18.592Z,42829.00
2023-04-11T11:53:18.586Z,40933.00
2023-04-11T11:54:18.589Z,39878.00
2023-04-11T11:55:18.650Z,41531.00
2023-04-11T11:56:18.563Z,39187.00
2023-04-11T11:57:18.552Z,41303.00
2023-04-11T11:58:18.539Z,39487.00
2023-04-11T11:59:18.534Z,40400.00
2023-04-11T12:00:18.529Z,42978.00
2023-04-11T12:01:18.523Z,40843.00
2023-04-11T12:02:18.550Z,37214.00
2023-04-11T12:03:18.638Z,32269.00
2023-04-11T12:04:18.705Z,34269.00
2023-04-11T12:05:18.515Z,39390.00
2023-04-11T12:06:18.474Z,41035.00
2023-04-11T12:07:18.456Z,38701.00
2023-04-11T12:08:18.454Z,42566.00
2023-04-11T12:09:18.435Z,45757.00
2023-04-11T12:10:18.437Z,43014.00
2023-04-11T12:11:18.498Z,45955.00
2023-04-11T12:12:18.408Z,47179.00
2023-04-11T12:13:18.397Z,44651.00
2023-04-11T12:14:18.389Z,43659.00
2023-04-11T12:15:18.380Z,46239.00
2023-04-11T12:16:18.433Z,44396.00
2023-04-11T12:17:18.476Z,43810.00
2023-04-11T12:18:18.353Z,43999.00
2023-04-11T12:19:18.346Z,45941.00
2023-04-11T12:20:18.333Z,44510.00
2023-04-11T12:21:18.325Z,46176.00
2023-04-11T12:22:18.326Z,45421.00
2023-04-11T12:23:18.318Z,44669.00
2023-04-11T12:24:18.302Z,46777.00
2023-04-11T12:25:18.289Z,46987.00
2023-04-11T12:26:18.280Z,49595.00
2023-04-11T12:27:19.594Z,50697.00
2023-04-11T12:28:18.268Z,49742.00
2023-04-11T12:29:31.004Z,49668.00
2023-04-11T12:30:18.246Z,48831.00
2023-04-11T12:31:18.256Z,45344.00
2023-04-11T12:32:18.225Z,45060.00
2023-04-11T12:33:18.315Z,45089.00
2023-04-11T12:34:18.208Z,42920.00
2023-04-11T12:35:18.196Z,46929.00
2023-04-11T12:36:18.190Z,44444.00
2023-04-11T12:37:26.800Z,49988.00
2023-04-11T12:38:18.453Z,39746.00
2023-04-11T12:39:18.264Z,40724.00
2023-04-11T12:40:18.148Z,37949.00
2023-04-11T12:41:31.125Z,37883.00
2023-04-11T12:42:23.813Z,38420.00
2023-04-11T12:43:19.169Z,47876.00
2023-04-11T12:44:41.796Z,51729.00
2023-04-11T12:45:18.106Z,48167.00
2023-04-11T12:46:18.125Z,45694.00
2023-04-11T12:47:18.095Z,45605.00
2023-04-11T12:48:18.077Z,43453.00
2023-04-11T12:49:18.069Z,49807.00
2023-04-11T12:51:39.912Z,48262.00
2023-04-11T12:51:41.328Z,48270.00
2023-04-11T12:52:41.321Z,49916.00
2023-04-11T12:53:41.314Z,46436.00
2023-04-11T12:54:41.335Z,51925.00
2023-04-11T12:55:42.810Z,54400.00
2023-04-11T12:56:49.226Z,50930.00
2023-04-11T13:00:36.239Z,53315.00
2023-04-11T13:00:37.669Z,53108.00
2023-04-11T13:01:40.291Z,53751.00
2023-04-11T13:02:42.780Z,50524.00
2023-04-11T13:03:38.929Z,48886.00
2023-04-11T13:04:38.032Z,52972.00
2023-04-11T13:08:05.712Z,52083.00
2023-04-11T13:08:07.130Z,51677.00
2023-04-11T13:09:07.795Z,50048.00
2023-04-11T13:10:07.138Z,51474.00
2023-04-11T13:11:07.104Z,50780.00
2023-04-11T13:12:58.465Z,51304.00
2023-04-11T13:13:18.035Z,52000.00
2023-04-11T13:14:08.100Z,49754.00
2023-04-11T13:17:02.547Z,50948.00
2023-04-11T13:17:03.958Z,50720.00
2023-04-11T13:18:39.605Z,50156.00
2023-04-11T13:23:26.712Z,54538.00
2023-04-11T13:23:28.135Z,53078.00
2023-04-11T13:24:33.189Z,53310.00
2023-04-11T13:25:28.120Z,51944.00
2023-04-11T13:26:31.958Z,50468.00
2023-04-11T13:29:33.499Z,53876.00
2023-04-11T13:29:34.907Z,53671.00
2023-04-11T14:11:39.519Z,52630.00
2023-04-11T14:11:40.945Z,51141.00
2023-04-11T14:14:38.768Z,52377.00
2023-04-11T14:14:40.183Z,51882.00
2023-04-11T14:15:40.172Z,47696.00
2023-04-11T14:18:09.810Z,51584.00
2023-04-11T14:18:11.407Z,49713.00
2023-04-11T14:23:16.282Z,49585.00
2023-04-11T14:23:17.684Z,47689.00
2023-04-11T14:24:17.678Z,47331.00
2023-04-11T14:25:19.758Z,50333.00
2023-04-11T14:26:17.661Z,46866.00
2023-04-11T14:27:19.000Z,51539.00
2023-04-11T14:47:52.708Z,36917.00
2023-04-11T14:48:38.841Z,46177.00
2023-04-11T14:48:54.208Z,45470.00
2023-04-11T14:59:39.447Z,43484.00
2023-04-11T14:59:40.862Z,43114.00
2023-04-11T15:21:34.781Z,47601.00
2023-04-11T15:21:36.192Z,47193.00
2023-04-11T15:25:14.251Z,34552.00
2023-04-11T15:25:15.656Z,34381.00
2023-04-11T15:27:49.852Z,40822.00
2023-04-11T15:27:51.273Z,40773.00
2023-04-11T15:30:18.693Z,48556.00
2023-04-11T15:30:20.117Z,48473.00
2023-04-11T15:31:20.148Z,36820.00
2023-04-11T15:32:20.096Z,34312.00
2023-04-11T16:00:22.057Z,38260.00
2023-04-11T16:00:23.466Z,38307.00
2023-04-11T16:01:23.554Z,36138.00
2023-04-11T16:17:24.973Z,27692.00
2023-04-11T16:17:26.455Z,27628.00
2023-04-11T16:18:26.400Z,32880.00
2023-04-11T16:19:26.391Z,28359.00
2023-04-11T16:20:26.374Z,25936.00
2023-04-11T16:21:26.373Z,30294.00
2023-04-11T16:22:26.362Z,30913.00
2023-04-11T16:23:26.347Z,30929.00
2023-04-11T16:24:26.335Z,21814.00
2023-04-11T16:25:26.336Z,24805.00
2023-04-11T16:26:26.316Z,28049.00
2023-04-11T16:27:26.309Z,32072.00
2023-04-11T16:28:26.306Z,35223.00
2023-04-11T16:29:26.290Z,33921.00
2023-04-11T16:30:26.292Z,23354.00
2023-04-11T16:31:26.346Z,26141.00
2023-04-11T16:32:26.286Z,23546.00
2023-04-11T16:33:26.274Z,25679.00
2023-04-11T16:34:26.244Z,24483.00
2023-04-11T16:35:26.246Z,21509.00
2023-04-11T16:36:26.224Z,27170.00
2023-04-11T16:37:26.213Z,25348.00
2023-04-11T16:38:26.206Z,22670.00
2023-04-11T16:39:26.204Z,17078.00
2023-04-11T16:40:26.188Z,22737.00
2023-04-11T16:41:26.204Z,32246.00
2023-04-11T16:42:26.167Z,21860.00
2023-04-11T16:43:26.160Z,14167.00
2023-04-11T16:44:26.152Z,16504.00
2023-04-11T16:45:26.146Z,18972.00
2023-04-11T16:46:26.149Z,14584.00
2023-04-11T16:47:26.285Z,13822.00
2023-04-11T16:48:26.113Z,14589.00
2023-04-11T16:49:26.129Z,14302.00
2023-04-11T16:50:26.093Z,14368.00
2023-04-11T16:51:26.099Z,12803.00
2023-04-11T16:52:26.075Z,17053.00
2023-04-11T16:53:26.063Z,12112.00
2023-04-11T16:54:26.055Z,12695.00
2023-04-11T16:55:26.043Z,13826.00
2023-04-11T16:56:27.776Z,12368.00
2023-04-11T16:57:26.026Z,12451.00
2023-04-11T16:58:26.012Z,12164.00
2023-04-11T16:59:26.006Z,11509.00
2023-04-11T17:00:25.994Z,11165.00
2023-04-11T17:01:26.023Z,11330.00
2023-04-11T17:02:26.147Z,10801.00
2023-04-11T17:03:26.094Z,10405.00
2023-04-11T17:04:26.230Z,11104.00
2023-04-11T17:05:25.985Z,11024.00
2023-04-11T17:06:25.949Z,10849.00
2023-04-11T17:07:25.935Z,9373.00
2023-04-11T17:08:25.922Z,9611.00
2023-04-11T17:09:25.910Z,9516.00
2023-04-11T17:10:25.905Z,9368.00
2023-04-11T17:11:25.923Z,8969.00
2023-04-11T17:12:25.880Z,9511.00
2023-04-11T17:13:25.870Z,9212.00
2023-04-11T17:14:25.859Z,8514.00
2023-04-11T17:15:25.851Z,7879.00
2023-04-11T17:16:25.931Z,6812.00
2023-04-11T17:17:25.891Z,7028.00
2023-04-11T17:18:25.818Z,7057.00
2023-04-11T17:19:25.809Z,7547.00
2023-04-11T17:20:25.804Z,7025.00
2023-04-11T17:21:25.814Z,6581.00
2023-04-11T17:22:25.780Z,6025.00
2023-04-11T17:23:38.919Z,5598.00
2023-04-11T17:24:26.781Z,5487.00
2023-04-11T17:25:25.750Z,4806.00
2023-04-11T17:26:25.739Z,4602.00
2023-04-11T17:27:25.729Z,4249.00
2023-04-11T17:28:25.720Z,3487.00
2023-04-11T17:29:25.712Z,2565.00
2023-04-11T17:30:25.697Z,2282.00
2023-04-11T17:31:25.799Z,2055.00
2023-04-11T17:32:25.687Z,1640.00
2023-04-11T17:33:25.670Z,1529.00
2023-04-11T17:34:25.659Z,1812.00
2023-04-11T17:35:25.646Z,1888.00
2023-04-11T17:36:25.667Z,1863.00